sensor_id;sensor_type;location;lat;lon;timestamp;temperature;humidity
19847;DHT22;10084;50.518;8.588;2024-03-02T00:00:16;4.50;74.80
19847;DHT22;10084;50.518;8.588;2024-03-02T00:02:45;4.50;75.10
19847;DHT22;10084;50.518;8.588;2024-03-02T00:05:12;4.50;75.20
19847;DHT22;10084;50.518;8.588;2024-03-02T00:07:58;4.50;75.40
19847;DHT22;10084;50.518;8.588;2024-03-02T00:10:26;4.40;75.20
19847;DHT22;10084;50.518;8.588;2024-03-02T00:12:58;4.40;75.50
19847;DHT22;10084;50.518;8.588;2024-03-02T00:15:48;4.40;75.70
19847;DHT22;10084;50.518;8.588;2024-03-02T00:18:37;4.30;75.50
19847;DHT22;10084;50.518;8.588;2024-03-02T00:21:03;4.30;76.20
19847;DHT22;10084;50.518;8.588;2024-03-02T00:23:33;4.30;76.40
19847;DHT22;10084;50.518;8.588;2024-03-02T00:26:00;4.30;76.00
19847;DHT22;10084;50.518;8.588;2024-03-02T00:28:36;4.20;75.40
19847;DHT22;10084;50.518;8.588;2024-03-02T00:31:09;4.10;75.00
19847;DHT22;10084;50.518;8.588;2024-03-02T00:33:40;4.10;75.30
19847;DHT22;10084;50.518;8.588;2024-03-02T00:36:08;4.00;75.50
19847;DHT22;10084;50.518;8.588;2024-03-02T00:38:43;4.00;75.80
19847;DHT22;10084;50.518;8.588;2024-03-02T00:41:22;3.90;76.50
19847;DHT22;10084;50.518;8.588;2024-03-02T00:46:24;3.90;77.30
19847;DHT22;10084;50.518;8.588;2024-03-02T00:51:22;3.80;76.50
19847;DHT22;10084;50.518;8.588;2024-03-02T00:53:49;3.80;77.90
19847;DHT22;10084;50.518;8.588;2024-03-02T00:56:16;3.80;76.70
19847;DHT22;10084;50.518;8.588;2024-03-02T00:58:42;3.80;77.10
19847;DHT22;10084;50.518;8.588;2024-03-02T01:01:08;3.80;77.40
19847;DHT22;10084;50.518;8.588;2024-03-02T01:03:34;3.70;77.50
19847;DHT22;10084;50.518;8.588;2024-03-02T01:06:00;3.70;77.10
19847;DHT22;10084;50.518;8.588;2024-03-02T01:08:26;3.70;77.40
19847;DHT22;10084;50.518;8.588;2024-03-02T01:10:52;3.80;78.10
19847;DHT22;10084;50.518;8.588;2024-03-02T01:13:18;3.80;78.30
19847;DHT22;10084;50.518;8.588;2024-03-02T01:15:43;3.80;78.20
19847;DHT22;10084;50.518;8.588;2024-03-02T01:18:09;3.80;77.90
19847;DHT22;10084;50.518;8.588;2024-03-02T01:20:35;3.80;78.20
19847;DHT22;10084;50.518;8.588;2024-03-02T01:23:00;3.80;78.20
19847;DHT22;10084;50.518;8.588;2024-03-02T01:25:26;3.80;78.10
19847;DHT22;10084;50.518;8.588;2024-03-02T01:27:52;3.70;78.40
19847;DHT22;10084;50.518;8.588;2024-03-02T01:30:17;3.70;78.50
19847;DHT22;10084;50.518;8.588;2024-03-02T01:32:43;3.70;78.40
19847;DHT22;10084;50.518;8.588;2024-03-02T01:35:09;3.80;78.40
19847;DHT22;10084;50.518;8.588;2024-03-02T01:37:34;3.80;79.00
19847;DHT22;10084;50.518;8.588;2024-03-02T01:40:00;3.80;78.90
19847;DHT22;10084;50.518;8.588;2024-03-02T01:42:26;3.90;79.00
19847;DHT22;10084;50.518;8.588;2024-03-02T01:44:52;4.00;79.00
19847;DHT22;10084;50.518;8.588;2024-03-02T01:47:18;4.10;78.80
19847;DHT22;10084;50.518;8.588;2024-03-02T01:49:43;4.10;78.60
19847;DHT22;10084;50.518;8.588;2024-03-02T01:52:09;4.20;78.80
19847;DHT22;10084;50.518;8.588;2024-03-02T01:54:35;4.20;78.80
19847;DHT22;10084;50.518;8.588;2024-03-02T01:57:00;4.30;78.90
19847;DHT22;10084;50.518;8.588;2024-03-02T01:59:26;4.40;79.20
19847;DHT22;10084;50.518;8.588;2024-03-02T02:01:52;4.40;78.50
19847;DHT22;10084;50.518;8.588;2024-03-02T02:04:18;4.40;78.80
19847;DHT22;10084;50.518;8.588;2024-03-02T02:06:47;4.40;78.70
19847;DHT22;10084;50.518;8.588;2024-03-02T02:09:12;4.40;78.50
19847;DHT22;10084;50.518;8.588;2024-03-02T02:11:38;4.40;79.30
19847;DHT22;10084;50.518;8.588;2024-03-02T02:14:04;4.40;78.90
19847;DHT22;10084;50.518;8.588;2024-03-02T02:16:31;4.40;78.90
19847;DHT22;10084;50.518;8.588;2024-03-02T02:18:57;4.50;78.90
19847;DHT22;10084;50.518;8.588;2024-03-02T02:21:23;4.40;78.90
19847;DHT22;10084;50.518;8.588;2024-03-02T02:23:48;4.40;78.80
19847;DHT22;10084;50.518;8.588;2024-03-02T02:26:15;4.40;79.60
19847;DHT22;10084;50.518;8.588;2024-03-02T02:28:41;4.40;78.60
19847;DHT22;10084;50.518;8.588;2024-03-02T02:31:15;4.40;78.80
19847;DHT22;10084;50.518;8.588;2024-03-02T02:33:41;4.30;78.80
19847;DHT22;10084;50.518;8.588;2024-03-02T02:36:07;4.30;79.00
19847;DHT22;10084;50.518;8.588;2024-03-02T02:38:37;4.20;79.00
19847;DHT22;10084;50.518;8.588;2024-03-02T02:41:04;4.20;78.90
19847;DHT22;10084;50.518;8.588;2024-03-02T02:43:29;4.20;79.20
19847;DHT22;10084;50.518;8.588;2024-03-02T02:45:55;4.10;79.10
19847;DHT22;10084;50.518;8.588;2024-03-02T02:48:21;4.10;79.30
19847;DHT22;10084;50.518;8.588;2024-03-02T02:50:46;4.10;79.10
19847;DHT22;10084;50.518;8.588;2024-03-02T02:53:12;4.00;79.20
19847;DHT22;10084;50.518;8.588;2024-03-02T02:55:39;4.00;78.90
19847;DHT22;10084;50.518;8.588;2024-03-02T02:58:09;4.00;78.90
19847;DHT22;10084;50.518;8.588;2024-03-02T03:00:34;4.00;79.30
19847;DHT22;10084;50.518;8.588;2024-03-02T03:03:00;3.90;79.20
19847;DHT22;10084;50.518;8.588;2024-03-02T03:05:26;3.90;79.10
19847;DHT22;10084;50.518;8.588;2024-03-02T03:07:51;3.80;78.80
19847;DHT22;10084;50.518;8.588;2024-03-02T03:10:17;3.80;79.10
19847;DHT22;10084;50.518;8.588;2024-03-02T03:12:43;3.80;79.50
19847;DHT22;10084;50.518;8.588;2024-03-02T03:15:10;3.70;79.20
19847;DHT22;10084;50.518;8.588;2024-03-02T03:17:36;3.70;79.20
19847;DHT22;10084;50.518;8.588;2024-03-02T03:20:03;3.60;79.20
19847;DHT22;10084;50.518;8.588;2024-03-02T03:22:30;3.70;79.40
19847;DHT22;10084;50.518;8.588;2024-03-02T03:24:57;3.60;79.40
19847;DHT22;10084;50.518;8.588;2024-03-02T03:27:22;3.60;79.50
19847;DHT22;10084;50.518;8.588;2024-03-02T03:29:48;3.70;79.50
19847;DHT22;10084;50.518;8.588;2024-03-02T03:32:14;3.70;79.70
19847;DHT22;10084;50.518;8.588;2024-03-02T03:34:39;3.70;79.60
19847;DHT22;10084;50.518;8.588;2024-03-02T03:37:05;3.80;79.70
19847;DHT22;10084;50.518;8.588;2024-03-02T03:39:32;3.80;79.80
19847;DHT22;10084;50.518;8.588;2024-03-02T03:41:59;3.80;80.00
19847;DHT22;10084;50.518;8.588;2024-03-02T03:44:24;3.90;79.60
19847;DHT22;10084;50.518;8.588;2024-03-02T03:46:50;3.90;79.70
19847;DHT22;10084;50.518;8.588;2024-03-02T03:49:16;3.90;80.00
19847;DHT22;10084;50.518;8.588;2024-03-02T03:51:42;3.90;79.70
19847;DHT22;10084;50.518;8.588;2024-03-02T03:54:08;3.90;80.00
19847;DHT22;10084;50.518;8.588;2024-03-02T03:56:34;4.00;80.00
19847;DHT22;10084;50.518;8.588;2024-03-02T03:58:59;4.00;80.00
19847;DHT22;10084;50.518;8.588;2024-03-02T04:01:25;4.00;79.90
19847;DHT22;10084;50.518;8.588;2024-03-02T04:03:51;4.10;80.30
19847;DHT22;10084;50.518;8.588;2024-03-02T04:06:16;4.10;80.50
19847;DHT22;10084;50.518;8.588;2024-03-02T04:08:43;4.10;81.10
19847;DHT22;10084;50.518;8.588;2024-03-02T04:11:08;4.20;81.90
19847;DHT22;10084;50.518;8.588;2024-03-02T04:13:34;4.20;81.60
19847;DHT22;10084;50.518;8.588;2024-03-02T04:16:00;4.20;80.30
19847;DHT22;10084;50.518;8.588;2024-03-02T04:18:25;4.20;80.30
19847;DHT22;10084;50.518;8.588;2024-03-02T04:20:51;4.20;82.90
19847;DHT22;10084;50.518;8.588;2024-03-02T04:23:17;4.20;82.50
19847;DHT22;10084;50.518;8.588;2024-03-02T04:25:42;4.30;82.80
19847;DHT22;10084;50.518;8.588;2024-03-02T04:28:08;4.30;80.90
19847;DHT22;10084;50.518;8.588;2024-03-02T04:30:34;4.40;80.60
19847;DHT22;10084;50.518;8.588;2024-03-02T04:32:59;4.50;82.50
19847;DHT22;10084;50.518;8.588;2024-03-02T04:35:25;4.60;82.90
19847;DHT22;10084;50.518;8.588;2024-03-02T04:37:51;4.60;81.20
19847;DHT22;10084;50.518;8.588;2024-03-02T04:40:16;4.70;81.20
19847;DHT22;10084;50.518;8.588;2024-03-02T04:42:42;4.70;82.00
19847;DHT22;10084;50.518;8.588;2024-03-02T04:45:08;4.70;79.90
19847;DHT22;10084;50.518;8.588;2024-03-02T04:47:34;4.80;82.40
19847;DHT22;10084;50.518;8.588;2024-03-02T04:50:00;4.90;81.50
19847;DHT22;10084;50.518;8.588;2024-03-02T04:52:26;4.90;80.30
19847;DHT22;10084;50.518;8.588;2024-03-02T04:54:51;4.90;80.20
19847;DHT22;10084;50.518;8.588;2024-03-02T04:57:43;5.00;86.20
19847;DHT22;10084;50.518;8.588;2024-03-02T05:00:09;5.00;78.60
19847;DHT22;10084;50.518;8.588;2024-03-02T05:02:35;5.00;79.30
19847;DHT22;10084;50.518;8.588;2024-03-02T05:05:01;4.90;80.10
19847;DHT22;10084;50.518;8.588;2024-03-02T05:07:28;5.00;81.70
19847;DHT22;10084;50.518;8.588;2024-03-02T05:09:53;5.00;86.10
19847;DHT22;10084;50.518;8.588;2024-03-02T05:12:19;5.00;78.30
19847;DHT22;10084;50.518;8.588;2024-03-02T05:15:04;5.00;78.40
19847;DHT22;10084;50.518;8.588;2024-03-02T05:17:30;5.00;78.80
19847;DHT22;10084;50.518;8.588;2024-03-02T05:19:55;4.90;80.30
19847;DHT22;10084;50.518;8.588;2024-03-02T05:22:21;4.90;80.30
19847;DHT22;10084;50.518;8.588;2024-03-02T05:24:47;4.90;85.50
19847;DHT22;10084;50.518;8.588;2024-03-02T05:27:12;4.80;78.80
19847;DHT22;10084;50.518;8.588;2024-03-02T05:29:38;4.80;79.50
19847;DHT22;10084;50.518;8.588;2024-03-02T05:32:04;4.80;80.70
19847;DHT22;10084;50.518;8.588;2024-03-02T05:34:29;4.90;87.00
19847;DHT22;10084;50.518;8.588;2024-03-02T05:36:56;4.80;78.90
19847;DHT22;10084;50.518;8.588;2024-03-02T05:39:23;4.90;79.00
19847;DHT22;10084;50.518;8.588;2024-03-02T05:41:48;4.90;79.20
19847;DHT22;10084;50.518;8.588;2024-03-02T05:44:14;4.90;80.00
19847;DHT22;10084;50.518;8.588;2024-03-02T05:46:41;4.90;81.30
19847;DHT22;10084;50.518;8.588;2024-03-02T05:49:07;5.00;83.10
19847;DHT22;10084;50.518;8.588;2024-03-02T05:51:33;4.90;81.50
19847;DHT22;10084;50.518;8.588;2024-03-02T05:53:59;5.00;82.40
19847;DHT22;10084;50.518;8.588;2024-03-02T05:56:24;4.90;81.80
19847;DHT22;10084;50.518;8.588;2024-03-02T05:58:50;4.90;83.00
19847;DHT22;10084;50.518;8.588;2024-03-02T06:01:34;4.90;84.00
19847;DHT22;10084;50.518;8.588;2024-03-02T06:04:00;4.90;84.00
19847;DHT22;10084;50.518;8.588;2024-03-02T06:06:26;4.90;83.20
19847;DHT22;10084;50.518;8.588;2024-03-02T06:08:52;4.90;91.00
19847;DHT22;10084;50.518;8.588;2024-03-02T06:11:21;4.90;79.10
19847;DHT22;10084;50.518;8.588;2024-03-02T06:13:46;4.90;79.10
19847;DHT22;10084;50.518;8.588;2024-03-02T06:16:12;4.90;79.30
19847;DHT22;10084;50.518;8.588;2024-03-02T06:18:38;4.90;79.40
19847;DHT22;10084;50.518;8.588;2024-03-02T06:21:04;5.00;80.70
19847;DHT22;10084;50.518;8.588;2024-03-02T06:23:30;5.10;81.70
19847;DHT22;10084;50.518;8.588;2024-03-02T06:25:55;5.20;81.00
19847;DHT22;10084;50.518;8.588;2024-03-02T06:28:21;5.30;81.70
19847;DHT22;10084;50.518;8.588;2024-03-02T06:30:47;5.40;81.70
19847;DHT22;10084;50.518;8.588;2024-03-02T06:33:13;5.40;81.00
19847;DHT22;10084;50.518;8.588;2024-03-02T06:35:38;5.50;80.50
19847;DHT22;10084;50.518;8.588;2024-03-02T06:38:04;5.60;80.90
19847;DHT22;10084;50.518;8.588;2024-03-02T06:40:30;5.70;80.70
19847;DHT22;10084;50.518;8.588;2024-03-02T06:42:56;5.80;82.50
19847;DHT22;10084;50.518;8.588;2024-03-02T06:45:21;5.90;83.20
19847;DHT22;10084;50.518;8.588;2024-03-02T06:47:47;6.00;90.80
19847;DHT22;10084;50.518;8.588;2024-03-02T06:50:13;6.00;79.70
19847;DHT22;10084;50.518;8.588;2024-03-02T06:52:38;6.10;79.50
19847;DHT22;10084;50.518;8.588;2024-03-02T06:55:05;6.20;79.50
19847;DHT22;10084;50.518;8.588;2024-03-02T06:57:31;6.20;79.50
19847;DHT22;10084;50.518;8.588;2024-03-02T06:59:56;6.30;79.60
19847;DHT22;10084;50.518;8.588;2024-03-02T07:02:27;6.30;79.60
19847;DHT22;10084;50.518;8.588;2024-03-02T07:04:53;6.40;79.80
19847;DHT22;10084;50.518;8.588;2024-03-02T07:07:19;6.50;79.90
19847;DHT22;10084;50.518;8.588;2024-03-02T07:09:45;6.50;80.10
19847;DHT22;10084;50.518;8.588;2024-03-02T07:12:11;6.60;80.50
19847;DHT22;10084;50.518;8.588;2024-03-02T07:14:36;6.60;81.10
19847;DHT22;10084;50.518;8.588;2024-03-02T07:17:21;6.60;81.90
19847;DHT22;10084;50.518;8.588;2024-03-02T07:19:46;6.50;81.30
19847;DHT22;10084;50.518;8.588;2024-03-02T07:22:13;6.60;82.20
19847;DHT22;10084;50.518;8.588;2024-03-02T07:24:42;6.60;81.80
19847;DHT22;10084;50.518;8.588;2024-03-02T07:27:09;6.50;81.80
19847;DHT22;10084;50.518;8.588;2024-03-02T07:29:36;6.50;80.70
19847;DHT22;10084;50.518;8.588;2024-03-02T07:32:02;6.50;79.40
19847;DHT22;10084;50.518;8.588;2024-03-02T07:34:27;6.50;79.40
19847;DHT22;10084;50.518;8.588;2024-03-02T07:36:53;6.50;79.50
19847;DHT22;10084;50.518;8.588;2024-03-02T07:39:19;6.50;79.50
19847;DHT22;10084;50.518;8.588;2024-03-02T07:41:45;6.60;79.60
19847;DHT22;10084;50.518;8.588;2024-03-02T07:44:11;6.60;79.90
19847;DHT22;10084;50.518;8.588;2024-03-02T07:46:43;6.70;80.10
19847;DHT22;10084;50.518;8.588;2024-03-02T07:49:09;6.80;81.20
19847;DHT22;10084;50.518;8.588;2024-03-02T07:51:35;6.80;82.10
19847;DHT22;10084;50.518;8.588;2024-03-02T07:54:02;6.90;81.70
19847;DHT22;10084;50.518;8.588;2024-03-02T07:56:27;7.00;81.80
19847;DHT22;10084;50.518;8.588;2024-03-02T07:58:54;7.20;82.30
19847;DHT22;10084;50.518;8.588;2024-03-02T08:01:20;7.50;82.90
19847;DHT22;10084;50.518;8.588;2024-03-02T08:03:46;7.80;88.00
19847;DHT22;10084;50.518;8.588;2024-03-02T08:06:17;8.10;80.90
19847;DHT22;10084;50.518;8.588;2024-03-02T08:08:43;8.40;80.60
19847;DHT22;10084;50.518;8.588;2024-03-02T08:11:09;8.60;80.20
19847;DHT22;10084;50.518;8.588;2024-03-02T08:13:34;8.80;79.60
19847;DHT22;10084;50.518;8.588;2024-03-02T08:16:00;8.90;79.30
19847;DHT22;10084;50.518;8.588;2024-03-02T08:18:28;8.90;78.90
19847;DHT22;10084;50.518;8.588;2024-03-02T08:20:54;9.00;78.90
19847;DHT22;10084;50.518;8.588;2024-03-02T08:23:20;9.10;78.80
19847;DHT22;10084;50.518;8.588;2024-03-02T08:25:46;9.10;78.80
19847;DHT22;10084;50.518;8.588;2024-03-02T08:28:12;9.10;78.90
19847;DHT22;10084;50.518;8.588;2024-03-02T08:30:38;9.10;79.10
19847;DHT22;10084;50.518;8.588;2024-03-02T08:33:04;9.10;79.20
19847;DHT22;10084;50.518;8.588;2024-03-02T08:35:31;9.00;78.80
19847;DHT22;10084;50.518;8.588;2024-03-02T08:38:04;9.00;78.20
19847;DHT22;10084;50.518;8.588;2024-03-02T08:40:30;8.90;79.20
19847;DHT22;10084;50.518;8.588;2024-03-02T08:42:55;8.90;79.20
19847;DHT22;10084;50.518;8.588;2024-03-02T08:45:21;8.90;79.20
19847;DHT22;10084;50.518;8.588;2024-03-02T08:47:47;8.90;85.20
19847;DHT22;10084;50.518;8.588;2024-03-02T08:50:13;8.90;78.20
19847;DHT22;10084;50.518;8.588;2024-03-02T08:52:39;8.90;78.20
19847;DHT22;10084;50.518;8.588;2024-03-02T08:55:05;8.90;78.10
19847;DHT22;10084;50.518;8.588;2024-03-02T08:57:31;9.00;78.30
19847;DHT22;10084;50.518;8.588;2024-03-02T08:59:57;9.00;78.40
19847;DHT22;10084;50.518;8.588;2024-03-02T09:02:23;9.00;78.30
19847;DHT22;10084;50.518;8.588;2024-03-02T09:04:49;9.10;79.30
19847;DHT22;10084;50.518;8.588;2024-03-02T09:07:15;9.20;80.00
19847;DHT22;10084;50.518;8.588;2024-03-02T09:09:40;9.30;80.00
19847;DHT22;10084;50.518;8.588;2024-03-02T09:12:07;9.50;80.70
19847;DHT22;10084;50.518;8.588;2024-03-02T09:14:33;9.80;79.20
19847;DHT22;10084;50.518;8.588;2024-03-02T09:16:59;10.00;80.50
19847;DHT22;10084;50.518;8.588;2024-03-02T09:19:24;10.20;78.20
19847;DHT22;10084;50.518;8.588;2024-03-02T09:21:50;10.40;78.20
19847;DHT22;10084;50.518;8.588;2024-03-02T09:24:16;10.80;78.70
19847;DHT22;10084;50.518;8.588;2024-03-02T09:26:41;11.10;77.80
19847;DHT22;10084;50.518;8.588;2024-03-02T09:29:07;11.30;77.10
19847;DHT22;10084;50.518;8.588;2024-03-02T09:31:42;11.60;77.50
19847;DHT22;10084;50.518;8.588;2024-03-02T09:34:09;11.80;76.90
19847;DHT22;10084;50.518;8.588;2024-03-02T09:36:34;11.90;76.10
19847;DHT22;10084;50.518;8.588;2024-03-02T09:39:00;12.00;76.10
19847;DHT22;10084;50.518;8.588;2024-03-02T09:41:26;12.00;76.10
19847;DHT22;10084;50.518;8.588;2024-03-02T09:43:52;12.30;76.50
19847;DHT22;10084;50.518;8.588;2024-03-02T09:46:18;12.60;78.40
19847;DHT22;10084;50.518;8.588;2024-03-02T09:48:45;12.90;75.60
19847;DHT22;10084;50.518;8.588;2024-03-02T09:51:11;13.00;76.10
19847;DHT22;10084;50.518;8.588;2024-03-02T09:53:37;13.00;75.60
19847;DHT22;10084;50.518;8.588;2024-03-02T09:56:03;13.10;75.70
19847;DHT22;10084;50.518;8.588;2024-03-02T09:58:30;13.30;77.40
19847;DHT22;10084;50.518;8.588;2024-03-02T10:00:56;13.40;77.50
19847;DHT22;10084;50.518;8.588;2024-03-02T10:03:23;14.10;75.10
19847;DHT22;10084;50.518;8.588;2024-03-02T10:05:50;15.30;72.80
19847;DHT22;10084;50.518;8.588;2024-03-02T10:08:15;16.30;70.80
19847;DHT22;10084;50.518;8.588;2024-03-02T10:10:41;17.00;70.50
19847;DHT22;10084;50.518;8.588;2024-03-02T10:13:10;17.90;68.60
19847;DHT22;10084;50.518;8.588;2024-03-02T10:15:37;18.60;67.30
19847;DHT22;10084;50.518;8.588;2024-03-02T10:18:04;19.00;66.20
19847;DHT22;10084;50.518;8.588;2024-03-02T10:20:30;19.60;65.30
19847;DHT22;10084;50.518;8.588;2024-03-02T10:23:13;20.00;63.90
19847;DHT22;10084;50.518;8.588;2024-03-02T10:25:39;20.30;63.20
19847;DHT22;10084;50.518;8.588;2024-03-02T10:32:58;21.00;91.50
19847;DHT22;10084;50.518;8.588;2024-03-02T10:35:24;20.20;83.40
19847;DHT22;10084;50.518;8.588;2024-03-02T10:37:52;19.50;82.80
19847;DHT22;10084;50.518;8.588;2024-03-02T10:40:21;18.90;81.20
19847;DHT22;10084;50.518;8.588;2024-03-02T10:42:47;18.40;80.00
19847;DHT22;10084;50.518;8.588;2024-03-02T10:45:15;17.60;76.50
19847;DHT22;10084;50.518;8.588;2024-03-02T10:47:42;16.90;80.40
19847;DHT22;10084;50.518;8.588;2024-03-02T10:50:08;16.30;81.30
19847;DHT22;10084;50.518;8.588;2024-03-02T10:52:37;15.80;80.90
19847;DHT22;10084;50.518;8.588;2024-03-02T10:55:05;15.80;78.90
19847;DHT22;10084;50.518;8.588;2024-03-02T10:58:01;16.40;77.30
19847;DHT22;10084;50.518;8.588;2024-03-02T11:00:33;17.20;76.70
19847;DHT22;10084;50.518;8.588;2024-03-02T11:03:05;18.00;62.70
19847;DHT22;10084;50.518;8.588;2024-03-02T11:05:39;18.60;74.10
19847;DHT22;10084;50.518;8.588;2024-03-02T11:08:14;18.70;72.20
19847;DHT22;10084;50.518;8.588;2024-03-02T11:10:49;19.00;71.00
19847;DHT22;10084;50.518;8.588;2024-03-02T11:13:22;19.40;67.80
19847;DHT22;10084;50.518;8.588;2024-03-02T11:15:52;19.80;68.50
19847;DHT22;10084;50.518;8.588;2024-03-02T11:18:19;20.30;68.00
19847;DHT22;10084;50.518;8.588;2024-03-02T11:20:45;20.80;68.20
19847;DHT22;10084;50.518;8.588;2024-03-02T11:23:12;21.30;65.10
19847;DHT22;10084;50.518;8.588;2024-03-02T11:25:37;22.10;64.90
19847;DHT22;10084;50.518;8.588;2024-03-02T11:28:06;22.70;59.20
19847;DHT22;10084;50.518;8.588;2024-03-02T11:33:08;23.10;70.40
19847;DHT22;10084;50.518;8.588;2024-03-02T11:38:01;22.00;67.40
19847;DHT22;10084;50.518;8.588;2024-03-02T11:40:30;21.70;67.10
19847;DHT22;10084;50.518;8.588;2024-03-02T11:42:59;21.60;66.40
19847;DHT22;10084;50.518;8.588;2024-03-02T11:45:29;21.70;64.00
19847;DHT22;10084;50.518;8.588;2024-03-02T11:47:57;21.60;63.90
19847;DHT22;10084;50.518;8.588;2024-03-02T11:50:42;21.40;63.90
19847;DHT22;10084;50.518;8.588;2024-03-02T11:53:10;21.00;64.30
19847;DHT22;10084;50.518;8.588;2024-03-02T11:55:37;20.50;64.30
19847;DHT22;10084;50.518;8.588;2024-03-02T11:58:04;19.80;65.60
19847;DHT22;10084;50.518;8.588;2024-03-02T12:00:30;19.20;66.20
19847;DHT22;10084;50.518;8.588;2024-03-02T12:03:07;19.10;67.10
19847;DHT22;10084;50.518;8.588;2024-03-02T12:05:33;19.00;66.70
19847;DHT22;10084;50.518;8.588;2024-03-02T12:08:00;18.80;67.30
19847;DHT22;10084;50.518;8.588;2024-03-02T12:10:26;18.70;67.00
19847;DHT22;10084;50.518;8.588;2024-03-02T12:13:00;18.20;65.80
19847;DHT22;10084;50.518;8.588;2024-03-02T12:15:27;17.50;59.80
19847;DHT22;10084;50.518;8.588;2024-03-02T12:17:57;16.90;60.30
19847;DHT22;10084;50.518;8.588;2024-03-02T12:20:24;16.40;69.50
19847;DHT22;10084;50.518;8.588;2024-03-02T12:22:53;16.00;70.30
19847;DHT22;10084;50.518;8.588;2024-03-02T12:25:20;15.70;72.40
19847;DHT22;10084;50.518;8.588;2024-03-02T12:27:48;15.50;73.20
19847;DHT22;10084;50.518;8.588;2024-03-02T12:30:16;15.60;70.60
19847;DHT22;10084;50.518;8.588;2024-03-02T12:32:42;16.20;82.80
19847;DHT22;10084;50.518;8.588;2024-03-02T12:35:10;17.00;79.80
19847;DHT22;10084;50.518;8.588;2024-03-02T12:37:47;17.70;62.70
19847;DHT22;10084;50.518;8.588;2024-03-02T12:40:15;18.30;77.00
19847;DHT22;10084;50.518;8.588;2024-03-02T12:42:45;18.70;74.80
19847;DHT22;10084;50.518;8.588;2024-03-02T12:45:11;19.00;73.80
19847;DHT22;10084;50.518;8.588;2024-03-02T12:47:38;19.20;71.80
19847;DHT22;10084;50.518;8.588;2024-03-02T12:50:05;19.40;71.90
19847;DHT22;10084;50.518;8.588;2024-03-02T12:52:31;19.40;71.50
19847;DHT22;10084;50.518;8.588;2024-03-02T12:55:00;19.40;70.90
19847;DHT22;10084;50.518;8.588;2024-03-02T12:57:29;19.30;70.70
19847;DHT22;10084;50.518;8.588;2024-03-02T13:00:05;19.20;70.90
19847;DHT22;10084;50.518;8.588;2024-03-02T13:02:36;19.10;70.80
19847;DHT22;10084;50.518;8.588;2024-03-02T13:05:02;19.10;61.50
19847;DHT22;10084;50.518;8.588;2024-03-02T13:07:29;19.30;70.80
19847;DHT22;10084;50.518;8.588;2024-03-02T13:09:55;19.40;68.70
19847;DHT22;10084;50.518;8.588;2024-03-02T13:12:22;19.60;64.00
19847;DHT22;10084;50.518;8.588;2024-03-02T13:14:49;19.80;59.60
19847;DHT22;10084;50.518;8.588;2024-03-02T13:17:20;19.90;56.50
19847;DHT22;10084;50.518;8.588;2024-03-02T13:19:57;19.90;55.90
19847;DHT22;10084;50.518;8.588;2024-03-02T13:22:23;20.00;55.90
19847;DHT22;10084;50.518;8.588;2024-03-02T13:24:50;20.30;54.80
19847;DHT22;10084;50.518;8.588;2024-03-02T13:27:15;20.50;54.30
19847;DHT22;10084;50.518;8.588;2024-03-02T13:29:45;20.60;52.20
19847;DHT22;10084;50.518;8.588;2024-03-02T13:32:11;20.90;52.90
19847;DHT22;10084;50.518;8.588;2024-03-02T13:34:36;21.20;50.30
19847;DHT22;10084;50.518;8.588;2024-03-02T13:37:03;21.40;51.40
19847;DHT22;10084;50.518;8.588;2024-03-02T13:39:30;21.50;48.90
19847;DHT22;10084;50.518;8.588;2024-03-02T13:41:58;21.50;49.20
19847;DHT22;10084;50.518;8.588;2024-03-02T13:44:30;21.80;49.50
19847;DHT22;10084;50.518;8.588;2024-03-02T13:46:56;22.00;50.30
19847;DHT22;10084;50.518;8.588;2024-03-02T13:49:22;22.10;49.50
19847;DHT22;10084;50.518;8.588;2024-03-02T13:51:48;22.30;49.30
19847;DHT22;10084;50.518;8.588;2024-03-02T13:54:14;22.40;46.70
19847;DHT22;10084;50.518;8.588;2024-03-02T13:56:40;22.50;45.40
19847;DHT22;10084;50.518;8.588;2024-03-02T13:59:07;22.30;45.20
19847;DHT22;10084;50.518;8.588;2024-03-02T14:01:33;22.10;45.50
19847;DHT22;10084;50.518;8.588;2024-03-02T14:03:59;21.90;45.50
19847;DHT22;10084;50.518;8.588;2024-03-02T14:06:25;21.50;46.40
19847;DHT22;10084;50.518;8.588;2024-03-02T14:08:53;21.10;47.80
19847;DHT22;10084;50.518;8.588;2024-03-02T14:11:18;20.70;50.50
19847;DHT22;10084;50.518;8.588;2024-03-02T14:13:45;20.20;47.60
19847;DHT22;10084;50.518;8.588;2024-03-02T14:16:15;19.60;47.70
19847;DHT22;10084;50.518;8.588;2024-03-02T14:18:41;18.90;48.80
19847;DHT22;10084;50.518;8.588;2024-03-02T14:21:07;18.30;50.10
19847;DHT22;10084;50.518;8.588;2024-03-02T14:23:33;17.90;51.00
19847;DHT22;10084;50.518;8.588;2024-03-02T14:25:59;17.30;51.50
19847;DHT22;10084;50.518;8.588;2024-03-02T14:28:25;16.70;52.60
19847;DHT22;10084;50.518;8.588;2024-03-02T14:30:51;16.30;54.10
19847;DHT22;10084;50.518;8.588;2024-03-02T14:33:16;15.90;55.80
19847;DHT22;10084;50.518;8.588;2024-03-02T14:35:44;15.60;57.50
19847;DHT22;10084;50.518;8.588;2024-03-02T14:38:11;15.30;60.40
19847;DHT22;10084;50.518;8.588;2024-03-02T14:40:37;15.10;64.70
19847;DHT22;10084;50.518;8.588;2024-03-02T14:43:02;14.90;72.30
19847;DHT22;10084;50.518;8.588;2024-03-02T14:45:29;14.80;75.20
19847;DHT22;10084;50.518;8.588;2024-03-02T14:47:55;14.70;75.30
19847;DHT22;10084;50.518;8.588;2024-03-02T14:50:21;14.60;73.30
19847;DHT22;10084;50.518;8.588;2024-03-02T14:52:47;14.50;76.30
19847;DHT22;10084;50.518;8.588;2024-03-02T14:55:12;14.40;78.50
19847;DHT22;10084;50.518;8.588;2024-03-02T14:57:38;14.40;82.80
19847;DHT22;10084;50.518;8.588;2024-03-02T15:00:04;14.30;85.00
19847;DHT22;10084;50.518;8.588;2024-03-02T15:09:54;14.00;91.30
19847;DHT22;10084;50.518;8.588;2024-03-02T15:24:39;13.90;90.90
19847;DHT22;10084;50.518;8.588;2024-03-02T15:27:05;13.90;86.70
19847;DHT22;10084;50.518;8.588;2024-03-02T15:29:32;13.90;86.00
19847;DHT22;10084;50.518;8.588;2024-03-02T15:31:58;13.90;85.20
19847;DHT22;10084;50.518;8.588;2024-03-02T15:34:24;13.90;84.00
19847;DHT22;10084;50.518;8.588;2024-03-02T15:36:50;13.80;83.20
19847;DHT22;10084;50.518;8.588;2024-03-02T15:39:17;13.80;82.90
19847;DHT22;10084;50.518;8.588;2024-03-02T15:41:44;13.80;82.10
19847;DHT22;10084;50.518;8.588;2024-03-02T15:44:10;13.70;82.40
19847;DHT22;10084;50.518;8.588;2024-03-02T15:46:36;13.70;82.20
19847;DHT22;10084;50.518;8.588;2024-03-02T15:49:02;13.70;80.90
19847;DHT22;10084;50.518;8.588;2024-03-02T15:51:28;13.70;80.90
19847;DHT22;10084;50.518;8.588;2024-03-02T15:53:54;13.70;80.30
19847;DHT22;10084;50.518;8.588;2024-03-02T15:56:20;13.70;79.80
19847;DHT22;10084;50.518;8.588;2024-03-02T15:58:46;13.60;82.80
19847;DHT22;10084;50.518;8.588;2024-03-02T16:01:13;13.60;82.60
19847;DHT22;10084;50.518;8.588;2024-03-02T16:03:39;13.60;82.10
19847;DHT22;10084;50.518;8.588;2024-03-02T16:06:05;13.60;81.80
19847;DHT22;10084;50.518;8.588;2024-03-02T16:08:30;13.60;81.60
19847;DHT22;10084;50.518;8.588;2024-03-02T16:10:56;13.60;81.20
19847;DHT22;10084;50.518;8.588;2024-03-02T16:13:23;13.60;80.00